Time;durP1;ratioP1;P1;durP2;ratioP2;P2;SDS_P1;SDS_P2;PMS_P1;PMS_P2;Temp;Humidity;BMP_temperature;BMP_pressure;BME280_temperature;BME280_humidity;BME280_pressure;Samples;Min_cycle;Max_cycle;Signal;HPM_P1;HPM_P2
2023/10/03 00:03:13;;;;;;;10.80;8.60;;;;;;;;;;10064734;28;20077;-69
2023/10/03 00:08:05;;;;;;;18.65;9.77;;;;;;;;;;10066422;28;20057;-68
2023/10/03 00:12:59;;;;;;;11.50;9.63;;;;;;;;;;10065679;28;20057;-67
2023/10/03 00:17:55;;;;;;;12.95;9.15;;;;;;;;;;10065726;28;20467;-67
2023/10/03 00:22:47;;;;;;;10.60;9.32;;;;;;;;;;10065986;28;20517;-68
2023/10/03 00:27:39;;;;;;;12.63;8.90;;;;;;;;;;10065430;28;20128;-70
2023/10/03 00:32:31;;;;;;;15.35;9.20;;;;;;;;;;10055034;28;20456;-68
2023/10/03 00:37:25;;;;;;;10.95;8.77;;;;;;;;;;10065003;28;20087;-68
2023/10/03 00:42:17;;;;;;;16.33;9.75;;;;;;;;;;10071202;28;20053;-68
2023/10/03 00:47:10;;;;;;;9.98;8.52;;;;;;;;;;10073446;28;20470;-67
2023/10/03 00:52:05;;;;;;;10.77;8.90;;;;;;;;;;10072970;28;20076;-68
2023/10/03 00:56:57;;;;;;;12.10;7.78;;;;;;;;;;10071138;28;20045;-67
2023/10/03 01:01:49;;;;;;;10.52;9.43;;;;;;;;;;10069445;28;20081;-68
2023/10/03 01:06:41;;;;;;;9.40;8.23;;;;;;;;;;10066659;28;20053;-67
2023/10/03 01:11:33;;;;;;;12.02;8.98;;;;;;;;;;10069223;28;20038;-68
2023/10/03 01:16:31;;;;;;;12.38;9.35;;;;;;;;;;10068300;28;20112;-68
2023/10/03 01:21:23;;;;;;;10.95;9.50;;;;;;;;;;10069050;28;20048;-68
2023/10/03 01:26:17;;;;;;;12.38;8.15;;;;;;;;;;10066528;28;20041;-68
2023/10/03 01:31:10;;;;;;;10.27;9.00;;;;;;;;;;10064567;28;20046;-66
2023/10/03 01:36:03;;;;;;;10.43;7.57;;;;;;;;;;10059828;28;20041;-67
2023/10/03 01:41:00;;;;;;;11.85;7.45;;;;;;;;;;10066477;28;20045;-66
2023/10/03 01:45:53;;;;;;;14.35;8.63;;;;;;;;;;10067143;28;20117;-66
2023/10/03 01:50:45;;;;;;;12.20;8.80;;;;;;;;;;10067515;28;20136;-67
2023/10/03 01:55:37;;;;;;;10.98;8.57;;;;;;;;;;10065054;28;20056;-68
2023/10/03 02:00:30;;;;;;;10.23;9.02;;;;;;;;;;10063500;28;20051;-68
2023/10/03 02:05:24;;;;;;;13.05;9.38;;;;;;;;;;10062908;28;20045;-68
2023/10/03 02:10:17;;;;;;;12.68;9.13;;;;;;;;;;10064832;28;20047;-67
2023/10/03 02:15:09;;;;;;;12.55;8.30;;;;;;;;;;10063274;28;20045;-68
2023/10/03 02:20:08;;;;;;;13.45;8.07;;;;;;;;;;10049947;28;20493;-67
2023/10/03 02:25:01;;;;;;;9.73;8.13;;;;;;;;;;10066298;28;20371;-68
2023/10/03 02:29:53;;;;;;;11.63;7.38;;;;;;;;;;10066610;28;20041;-68
2023/10/03 02:34:47;;;;;;;11.25;8.48;;;;;;;;;;10064353;28;20044;-69
2023/10/03 02:39:39;;;;;;;10.57;7.43;;;;;;;;;;10063743;28;20459;-68
2023/10/03 02:44:32;;;;;;;10.18;6.93;;;;;;;;;;10064686;28;20384;-69
2023/10/03 02:49:24;;;;;;;12.73;7.97;;;;;;;;;;10061762;28;20459;-68
2023/10/03 02:54:16;;;;;;;11.05;6.90;;;;;;;;;;10065441;28;20477;-69
2023/10/03 02:59:08;;;;;;;12.07;6.55;;;;;;;;;;10065127;28;20072;-66
2023/10/03 03:04:01;;;;;;;7.57;6.78;;;;;;;;;;10058008;28;20045;-69
2023/10/03 03:08:54;;;;;;;11.30;8.25;;;;;;;;;;10065324;28;20045;-67
2023/10/03 03:13:45;;;;;;;8.68;6.90;;;;;;;;;;10063741;28;20045;-69
2023/10/03 03:18:41;;;;;;;9.13;7.00;;;;;;;;;;10063771;28;20426;-69
2023/10/03 03:23:36;;;;;;;9.95;6.78;;;;;;;;;;10064411;28;20052;-69
2023/10/03 03:28:28;;;;;;;8.75;6.55;;;;;;;;;;10063914;28;20053;-66
2023/10/03 03:33:21;;;;;;;8.95;6.57;;;;;;;;;;10062325;28;20104;-69
2023/10/03 03:38:20;;;;;;;8.88;7.25;;;;;;;;;;10065413;28;20083;-69
2023/10/03 03:43:16;;;;;;;7.93;6.05;;;;;;;;;;10061525;28;20052;-66
2023/10/03 03:48:09;;;;;;;8.10;6.38;;;;;;;;;;10064696;28;20490;-66
2023/10/03 03:53:03;;;;;;;15.95;7.68;;;;;;;;;;10061025;28;20368;-67
2023/10/03 03:57:55;;;;;;;8.45;7.20;;;;;;;;;;10060376;28;20072;-65
2023/10/03 04:02:48;;;;;;;10.50;7.10;;;;;;;;;;10062242;28;20049;-69
2023/10/03 04:07:40;;;;;;;11.38;7.15;;;;;;;;;;10054589;28;20054;-66
2023/10/03 04:12:40;;;;;;;7.85;6.38;;;;;;;;;;10059456;28;20479;-69
2023/10/03 04:17:33;;;;;;;11.82;7.03;;;;;;;;;;10062624;28;20041;-70
2023/10/03 04:22:30;;;;;;;9.75;8.07;;;;;;;;;;10059961;28;20463;-69
2023/10/03 04:27:25;;;;;;;9.82;7.53;;;;;;;;;;10061658;28;20099;-67
2023/10/03 04:32:17;;;;;;;11.00;7.18;;;;;;;;;;10062441;28;20539;-66
2023/10/03 04:37:10;;;;;;;9.35;6.93;;;;;;;;;;10060762;28;20411;-67
2023/10/03 04:42:02;;;;;;;9.93;6.57;;;;;;;;;;10060251;28;20073;-66
2023/10/03 04:46:53;;;;;;;10.50;7.90;;;;;;;;;;10061273;28;20047;-65
2023/10/03 04:51:47;;;;;;;12.23;10.85;;;;;;;;;;10058198;28;20048;-66
2023/10/03 04:56:40;;;;;;;8.75;7.40;;;;;;;;;;10051998;28;20038;-66
2023/10/03 05:01:32;;;;;;;10.90;8.40;;;;;;;;;;10059376;28;20040;-66
2023/10/03 05:06:24;;;;;;;13.30;8.48;;;;;;;;;;10060729;28;20069;-66
2023/10/03 05:11:16;;;;;;;9.90;8.90;;;;;;;;;;10060787;28;20387;-69
2023/10/03 05:16:07;;;;;;;9.95;7.07;;;;;;;;;;10061529;28;20083;-68
2023/10/03 05:20:59;;;;;;;9.10;7.75;;;;;;;;;;10061068;28;20499;-67
2023/10/03 05:25:51;;;;;;;11.32;8.00;;;;;;;;;;10062231;28;20422;-67
2023/10/03 05:30:43;;;;;;;8.88;7.97;;;;;;;;;;10067884;28;20055;-67
2023/10/03 05:35:35;;;;;;;12.45;10.10;;;;;;;;;;10059160;28;20409;-68
2023/10/03 05:40:28;;;;;;;13.45;10.15;;;;;;;;;;10064019;28;20069;-67
2023/10/03 05:45:20;;;;;;;9.82;6.43;;;;;;;;;;10064192;28;20054;-68
2023/10/03 05:50:14;;;;;;;11.32;7.13;;;;;;;;;;10066751;28;20099;-67
2023/10/03 05:55:07;;;;;;;8.18;6.70;;;;;;;;;;10058111;28;20038;-67
2023/10/03 05:59:59;;;;;;;8.82;6.35;;;;;;;;;;10053628;28;20120;-66
2023/10/03 06:04:52;;;;;;;7.45;6.40;;;;;;;;;;10069328;28;20076;-67
2023/10/03 06:09:44;;;;;;;12.07;7.18;;;;;;;;;;10068059;28;20125;-68
2023/10/03 06:14:36;;;;;;;15.93;7.97;;;;;;;;;;10066768;28;20045;-66
2023/10/03 06:19:30;;;;;;;8.38;7.30;;;;;;;;;;10055680;28;20128;-66
2023/10/03 06:24:25;;;;;;;8.23;6.45;;;;;;;;;;10064353;28;20049;-70
2023/10/03 06:29:17;;;;;;;10.98;7.03;;;;;;;;;;10047560;28;20376;-71
2023/10/03 06:34:08;;;;;;;9.10;6.82;;;;;;;;;;10065678;28;20050;-72
2023/10/03 06:39:00;;;;;;;8.52;6.43;;;;;;;;;;10061856;28;20037;-71
2023/10/03 06:43:53;;;;;;;12.32;6.95;;;;;;;;;;10061464;28;20090;-72
2023/10/03 06:48:51;;;;;;;12.30;7.03;;;;;;;;;;10057913;28;20153;-71
2023/10/03 06:53:47;;;;;;;10.25;7.30;;;;;;;;;;10056673;28;20050;-71
2023/10/03 06:58:39;;;;;;;8.73;7.78;;;;;;;;;;10058042;28;20091;-71
2023/10/03 07:03:31;;;;;;;9.52;7.32;;;;;;;;;;10061005;28;20045;-71
2023/10/03 07:08:25;;;;;;;7.85;6.75;;;;;;;;;;10060245;28;20123;-70
2023/10/03 07:13:17;;;;;;;12.20;9.05;;;;;;;;;;10059328;28;20048;-71
2023/10/03 07:18:09;;;;;;;16.58;12.27;;;;;;;;;;10062155;28;20073;-70
2023/10/03 07:23:02;;;;;;;24.17;17.25;;;;;;;;;;10060652;28;20111;-73
2023/10/03 07:27:54;;;;;;;21.98;17.42;;;;;;;;;;10059838;28;20046;-71
2023/10/03 07:32:47;;;;;;;22.58;17.80;;;;;;;;;;10062455;28;20132;-72
2023/10/03 07:37:40;;;;;;;23.42;17.85;;;;;;;;;;10060963;28;20056;-71
2023/10/03 07:42:32;;;;;;;18.63;16.83;;;;;;;;;;10061409;28;20451;-73
2023/10/03 07:47:24;;;;;;;24.23;16.88;;;;;;;;;;10060415;28;20046;-74
2023/10/03 07:52:17;;;;;;;18.58;16.10;;;;;;;;;;10060473;28;20042;-72
2023/10/03 07:57:09;;;;;;;27.52;14.18;;;;;;;;;;10060389;28;20454;-74
2023/10/03 08:02:05;;;;;;;16.58;14.35;;;;;;;;;;10057467;28;20408;-74
2023/10/03 08:06:58;;;;;;;19.08;12.18;;;;;;;;;;10055624;28;20092;-74
2023/10/03 08:11:52;;;;;;;18.02;13.60;;;;;;;;;;10052842;28;20092;-71
2023/10/03 08:16:45;;;;;;;18.17;13.45;;;;;;;;;;10060471;28;20067;-74
2023/10/03 08:21:43;;;;;;;14.73;13.23;;;;;;;;;;10057989;28;20038;-74
2023/10/03 08:26:39;;;;;;;20.13;13.85;;;;;;;;;;10056075;28;20049;-74
2023/10/03 08:31:32;;;;;;;14.30;12.90;;;;;;;;;;10051544;28;20045;-74
2023/10/03 08:36:28;;;;;;;13.35;11.95;;;;;;;;;;10059200;28;20049;-74
2023/10/03 08:41:34;;;;;;;14.40;12.90;;;;;;;;;;10059528;28;20107;-71
2023/10/03 08:46:29;;;;;;;16.10;13.30;;;;;;;;;;10056297;28;20049;-72
2023/10/03 08:51:21;;;;;;;19.92;15.82;;;;;;;;;;10057087;28;20063;-72
2023/10/03 08:56:18;;;;;;;19.02;16.60;;;;;;;;;;10058048;28;20507;-72
2023/10/03 09:01:17;;;;;;;23.40;17.67;;;;;;;;;;10059188;28;20128;-73
2023/10/03 09:06:17;;;;;;;27.42;18.23;;;;;;;;;;10063463;28;20428;-73
2023/10/03 09:11:13;;;;;;;19.20;17.17;;;;;;;;;;10066231;28;20376;-72
2023/10/03 09:16:08;;;;;;;19.58;16.75;;;;;;;;;;10064886;28;20127;-73
2023/10/03 09:21:00;;;;;;;21.42;15.77;;;;;;;;;;10065834;28;20077;-72
2023/10/03 09:25:55;;;;;;;20.10;15.43;;;;;;;;;;10065021;28;20482;-73
2023/10/03 09:30:48;;;;;;;22.27;13.63;;;;;;;;;;10064541;28;20041;-73
2023/10/03 09:35:40;;;;;;;22.67;17.23;;;;;;;;;;10065197;28;20548;-72
2023/10/03 09:40:51;;;;;;;16.60;14.80;;;;;;;;;;10064873;28;20204;-72
2023/10/03 09:45:46;;;;;;;18.92;15.43;;;;;;;;;;10064345;28;20125;-73
2023/10/03 09:50:43;;;;;;;19.52;16.05;;;;;;;;;;10055888;28;20137;-73
2023/10/03 09:55:46;;;;;;;17.70;13.90;;;;;;;;;;10065138;28;20056;-74
2023/10/03 10:00:40;;;;;;;16.25;14.38;;;;;;;;;;10063559;28;20136;-73
2023/10/03 10:05:33;;;;;;;12.82;11.45;;;;;;;;;;10061796;28;20068;-72
2023/10/03 10:10:25;;;;;;;21.48;13.52;;;;;;;;;;10062486;28;20077;-73
2023/10/03 10:15:26;;;;;;;18.25;15.73;;;;;;;;;;10061423;28;20084;-72
2023/10/03 10:20:37;;;;;;;16.60;13.60;;;;;;;;;;10063673;28;20048;-73
2023/10/03 10:25:43;;;;;;;17.73;13.23;;;;;;;;;;10057195;28;20037;-74
2023/10/03 10:30:36;;;;;;;15.77;11.73;;;;;;;;;;10063581;28;20081;-76
2023/10/03 10:35:56;;;;;;;16.27;13.90;;;;;;;;;;10063234;28;20053;-70
2023/10/03 10:41:26;;;;;;;19.90;14.18;;;;;;;;;;10057501;28;20501;-70
2023/10/03 10:46:52;;;;;;;22.55;14.02;;;;;;;;;;10063157;28;20057;-73
2023/10/03 10:51:55;;;;;;;16.80;13.95;;;;;;;;;;10023328;28;20403;-72
2023/10/03 10:56:47;;;;;;;18.52;13.55;;;;;;;;;;10060379;28;20034;-72
2023/10/03 11:01:39;;;;;;;14.43;11.45;;;;;;;;;;10060618;28;20490;-72
2023/10/03 11:06:32;;;;;;;16.25;12.85;;;;;;;;;;10061701;28;20041;-70
2023/10/03 11:11:34;;;;;;;20.27;13.70;;;;;;;;;;10060410;28;20050;-72
2023/10/03 11:16:27;;;;;;;14.73;12.63;;;;;;;;;;10059714;28;20061;-72
2023/10/03 11:21:19;;;;;;;20.67;13.55;;;;;;;;;;10060998;28;20492;-72
2023/10/03 11:26:12;;;;;;;15.90;11.68;;;;;;;;;;10059814;28;20049;-72
2023/10/03 11:31:05;;;;;;;13.05;10.52;;;;;;;;;;10051231;28;20073;-72
2023/10/03 11:35:57;;;;;;;13.70;11.35;;;;;;;;;;10060965;28;20041;-71
2023/10/03 11:40:50;;;;;;;17.83;11.57;;;;;;;;;;10060339;28;20474;-72
2023/10/03 11:45:46;;;;;;;17.38;14.70;;;;;;;;;;10060082;28;20132;-72
2023/10/03 11:50:39;;;;;;;14.63;13.00;;;;;;;;;;10060763;28;20041;-72
2023/10/03 11:55:33;;;;;;;14.18;12.20;;;;;;;;;;10057350;28;20075;-73
2023/10/03 12:00:24;;;;;;;13.75;12.10;;;;;;;;;;10055324;28;20060;-75
2023/10/03 12:05:16;;;;;;;17.25;13.63;;;;;;;;;;10052961;28;20115;-72
2023/10/03 12:10:12;;;;;;;17.52;15.40;;;;;;;;;;10054484;28;20061;-72
2023/10/03 12:15:12;;;;;;;16.02;13.52;;;;;;;;;;10055242;28;20112;-72
2023/10/03 12:20:05;;;;;;;15.57;14.10;;;;;;;;;;10048474;28;20099;-71
2023/10/03 12:24:57;;;;;;;15.15;13.15;;;;;;;;;;10058030;28;20064;-72
2023/10/03 12:29:51;;;;;;;15.38;11.93;;;;;;;;;;10058345;28;20108;-72
2023/10/03 12:34:43;;;;;;;20.85;13.25;;;;;;;;;;10056884;28;20048;-72
2023/10/03 12:39:35;;;;;;;18.33;15.73;;;;;;;;;;10059120;28;20038;-71
2023/10/03 12:44:30;;;;;;;16.25;12.43;;;;;;;;;;10069285;28;20069;-73
2023/10/03 12:49:22;;;;;;;15.93;14.23;;;;;;;;;;10065072;28;20061;-73
2023/10/03 12:54:14;;;;;;;17.05;13.98;;;;;;;;;;10065778;28;20517;-73
2023/10/03 12:59:06;;;;;;;18.38;13.35;;;;;;;;;;10058740;28;20049;-71
2023/10/03 13:03:58;;;;;;;16.98;11.40;;;;;;;;;;10067532;28;20080;-72
2023/10/03 13:08:52;;;;;;;15.70;13.00;;;;;;;;;;10065487;28;20089;-72
2023/10/03 13:13:47;;;;;;;16.85;12.30;;;;;;;;;;10066172;28;20044;-73
2023/10/03 13:18:39;;;;;;;14.13;10.88;;;;;;;;;;10065471;28;20041;-72
2023/10/03 13:23:32;;;;;;;16.92;13.18;;;;;;;;;;10066318;28;20041;-72
2023/10/03 13:28:25;;;;;;;15.38;13.73;;;;;;;;;;10065777;28;21104;-73
2023/10/03 13:33:18;;;;;;;12.27;11.10;;;;;;;;;;10066092;28;20317;-70
2023/10/03 13:38:10;;;;;;;14.63;12.13;;;;;;;;;;10061534;28;20080;-72
2023/10/03 13:43:04;;;;;;;24.13;13.40;;;;;;;;;;10064713;28;20073;-71
2023/10/03 13:47:56;;;;;;;15.52;12.02;;;;;;;;;;10059930;28;20088;-72
2023/10/03 13:52:51;;;;;;;20.48;11.23;;;;;;;;;;10062590;28;20068;-72
2023/10/03 13:57:44;;;;;;;20.13;14.07;;;;;;;;;;10065256;28;20053;-70
2023/10/03 14:02:36;;;;;;;14.43;11.55;;;;;;;;;;10063859;28;20148;-73
2023/10/03 14:07:29;;;;;;;20.38;13.93;;;;;;;;;;10063677;28;20384;-73
2023/10/03 14:12:21;;;;;;;12.82;10.55;;;;;;;;;;10063623;28;20042;-72
2023/10/03 14:17:13;;;;;;;16.33;12.82;;;;;;;;;;10063752;28;20033;-72
2023/10/03 14:22:05;;;;;;;15.88;12.18;;;;;;;;;;10063412;28;20057;-73
2023/10/03 14:26:57;;;;;;;15.88;13.10;;;;;;;;;;10062985;28;20046;-73
2023/10/03 14:31:49;;;;;;;12.73;10.38;;;;;;;;;;10063561;28;20054;-73
2023/10/03 14:36:43;;;;;;;14.63;11.20;;;;;;;;;;10061826;28;20080;-72
2023/10/03 14:41:35;;;;;;;14.40;10.75;;;;;;;;;;10064394;28;20041;-74
2023/10/03 14:46:27;;;;;;;13.98;10.23;;;;;;;;;;10061659;28;20092;-72
2023/10/03 14:51:19;;;;;;;21.27;10.50;;;;;;;;;;10060301;28;20049;-74
2023/10/03 14:56:11;;;;;;;16.05;10.35;;;;;;;;;;10063504;28;20592;-74
2023/10/03 15:01:04;;;;;;;9.25;8.32;;;;;;;;;;10062168;28;20116;-73
2023/10/03 15:05:56;;;;;;;15.25;9.80;;;;;;;;;;10060598;28;20056;-73
2023/10/03 15:10:48;;;;;;;12.73;9.60;;;;;;;;;;10060818;28;20136;-74
2023/10/03 15:15:39;;;;;;;9.73;8.32;;;;;;;;;;10062547;28;20073;-73
2023/10/03 15:20:32;;;;;;;12.43;8.43;;;;;;;;;;10061562;28;20414;-74
2023/10/03 15:25:25;;;;;;;11.13;9.45;;;;;;;;;;10062073;28;20095;-73
2023/10/03 15:30:17;;;;;;;12.82;8.52;;;;;;;;;;10061778;28;20076;-73
2023/10/03 15:35:10;;;;;;;11.93;8.90;;;;;;;;;;10060541;28;20037;-73
2023/10/03 15:40:01;;;;;;;12.15;9.95;;;;;;;;;;10060911;28;20129;-72
2023/10/03 15:44:59;;;;;;;9.65;8.65;;;;;;;;;;10060827;28;20378;-74
2023/10/03 15:50:01;;;;;;;;;;;;;;;;;;10061064;28;20475;-71
2023/10/03 15:54:53;;;;;;;14.48;8.75;;;;;;;;;;10062258;28;19920;-72
2023/10/03 15:59:45;;;;;;;13.82;10.57;;;;;;;;;;10059968;28;20049;-70
2023/10/03 16:04:37;;;;;;;13.52;9.55;;;;;;;;;;10050461;28;20065;-72
2023/10/03 16:09:29;;;;;;;13.27;9.32;;;;;;;;;;10057855;28;20046;-72
2023/10/03 16:14:21;;;;;;;9.52;7.70;;;;;;;;;;10060066;28;20046;-73
2023/10/03 16:19:14;;;;;;;10.85;7.97;;;;;;;;;;10059777;28;20053;-72
2023/10/03 16:24:07;;;;;;;15.45;8.18;;;;;;;;;;10060221;28;20482;-73
2023/10/03 16:28:58;;;;;;;9.85;8.82;;;;;;;;;;10060877;28;20045;-73
2023/10/03 16:33:50;;;;;;;12.90;7.90;;;;;;;;;;10060054;28;20037;-72
2023/10/03 16:38:42;;;;;;;12.30;9.07;;;;;;;;;;10050747;28;20081;-74
2023/10/03 16:43:35;;;;;;;10.75;8.40;;;;;;;;;;10055097;28;20436;-73
2023/10/03 16:48:27;;;;;;;9.73;8.30;;;;;;;;;;10065461;28;20529;-73
2023/10/03 16:53:20;;;;;;;14.48;8.77;;;;;;;;;;10055833;28;20482;-73
2023/10/03 16:58:12;;;;;;;14.48;8.50;;;;;;;;;;10062142;28;20476;-73
2023/10/03 17:03:04;;;;;;;12.43;8.43;;;;;;;;;;10049349;28;20104;-73
2023/10/03 17:07:58;;;;;;;16.55;8.98;;;;;;;;;;10059491;28;20041;-73
2023/10/03 17:12:50;;;;;;;14.60;9.65;;;;;;;;;;10062990;28;20095;-73
2023/10/03 17:17:42;;;;;;;10.95;8.18;;;;;;;;;;10057969;28;20046;-72
2023/10/03 17:22:34;;;;;;;14.52;9.25;;;;;;;;;;10059360;28;20851;-73
2023/10/03 17:27:26;;;;;;;14.80;10.23;;;;;;;;;;10066316;28;20046;-72
2023/10/03 17:32:18;;;;;;;14.60;10.10;;;;;;;;;;10067997;28;20055;-69
2023/10/03 17:37:12;;;;;;;9.90;8.38;;;;;;;;;;10065458;28;20048;-69
2023/10/03 17:42:05;;;;;;;15.40;9.95;;;;;;;;;;10066124;28;20099;-69
2023/10/03 17:46:58;;;;;;;15.65;9.80;;;;;;;;;;10065185;28;20128;-70
2023/10/03 17:51:50;;;;;;;10.63;9.57;;;;;;;;;;10064935;28;20050;-71
2023/10/03 17:56:41;;;;;;;16.70;9.77;;;;;;;;;;10064501;28;20042;-70
2023/10/03 18:01:33;;;;;;;17.17;9.43;;;;;;;;;;10064850;28;20064;-69
2023/10/03 18:06:25;;;;;;;15.40;9.68;;;;;;;;;;10063033;28;20037;-70
2023/10/03 18:11:17;;;;;;;10.93;9.85;;;;;;;;;;10066160;28;20053;-70
2023/10/03 18:16:13;;;;;;;10.45;8.82;;;;;;;;;;10064163;28;20046;-67
2023/10/03 18:21:10;;;;;;;12.75;9.10;;;;;;;;;;10065217;28;20503;-70
2023/10/03 18:26:05;;;;;;;13.82;8.85;;;;;;;;;;10066520;28;20049;-70
2023/10/03 18:30:57;;;;;;;16.45;9.90;;;;;;;;;;10065955;28;20103;-70
2023/10/03 18:35:49;;;;;;;11.80;9.20;;;;;;;;;;10065962;28;20076;-70
2023/10/03 18:40:42;;;;;;;9.23;8.32;;;;;;;;;;10065203;28;20523;-70
2023/10/03 18:45:38;;;;;;;16.63;9.75;;;;;;;;;;10065066;28;20137;-70
2023/10/03 18:50:46;;;;;;;12.85;8.18;;;;;;;;;;10065174;28;20108;-71
2023/10/03 18:55:38;;;;;;;10.90;9.07;;;;;;;;;;10064911;28;20041;-71
2023/10/03 19:00:30;;;;;;;9.48;8.45;;;;;;;;;;10064462;28;20041;-70
2023/10/03 19:05:22;;;;;;;10.07;8.30;;;;;;;;;;10064914;28;20452;-69
2023/10/03 19:10:14;;;;;;;23.48;8.50;;;;;;;;;;10063988;28;20446;-70
2023/10/03 19:15:07;;;;;;;9.40;8.48;;;;;;;;;;10063520;28;20466;-69
2023/10/03 19:19:59;;;;;;;16.17;9.07;;;;;;;;;;10063908;28;20038;-69
2023/10/03 19:24:55;;;;;;;14.15;9.63;;;;;;;;;;10061612;28;20048;-69
2023/10/03 19:29:48;;;;;;;13.73;9.65;;;;;;;;;;10064457;28;20052;-69
2023/10/03 19:34:40;;;;;;;9.75;8.85;;;;;;;;;;10059763;28;20073;-69
2023/10/03 19:39:32;;;;;;;13.75;10.23;;;;;;;;;;10064706;28;20037;-71
2023/10/03 19:44:25;;;;;;;15.77;10.20;;;;;;;;;;10062588;28;20052;-70
2023/10/03 19:49:17;;;;;;;12.18;9.27;;;;;;;;;;10059947;28;20125;-70
2023/10/03 19:54:09;;;;;;;11.77;10.68;;;;;;;;;;10054216;28;20364;-69
2023/10/03 19:59:01;;;;;;;15.00;10.32;;;;;;;;;;10063718;28;20072;-70
2023/10/03 20:03:53;;;;;;;23.90;10.38;;;;;;;;;;10065569;28;20057;-71
2023/10/03 20:08:47;;;;;;;11.82;9.18;;;;;;;;;;10065633;28;20136;-71
2023/10/03 20:13:40;;;;;;;14.10;11.55;;;;;;;;;;10065643;28;20050;-71
2023/10/03 20:18:32;;;;;;;19.65;12.43;;;;;;;;;;10065315;28;20137;-72
2023/10/03 20:23:26;;;;;;;13.80;10.90;;;;;;;;;;10065800;28;20049;-71
2023/10/03 20:28:18;;;;;;;10.27;9.02;;;;;;;;;;10064576;28;20128;-69
2023/10/03 20:33:10;;;;;;;13.60;6.25;;;;;;;;;;10064076;28;20456;-71
2023/10/03 20:38:02;;;;;;;7.18;6.38;;;;;;;;;;10064957;28;20052;-70
2023/10/03 20:42:55;;;;;;;7.65;6.63;;;;;;;;;;10064704;28;20452;-71
2023/10/03 20:47:47;;;;;;;9.05;6.00;;;;;;;;;;10064819;28;20053;-70
2023/10/03 20:52:39;;;;;;;8.45;5.28;;;;;;;;;;10064464;28;20055;-71
2023/10/03 20:57:31;;;;;;;8.07;4.90;;;;;;;;;;10066930;28;20423;-70
2023/10/03 21:02:25;;;;;;;8.38;5.03;;;;;;;;;;10071913;28;20519;-71
2023/10/03 21:07:17;;;;;;;6.30;5.10;;;;;;;;;;10072882;28;20040;-71
2023/10/03 21:12:09;;;;;;;6.50;4.15;;;;;;;;;;10071815;28;20077;-71
2023/10/03 21:17:01;;;;;;;5.43;4.30;;;;;;;;;;10071679;28;20409;-70
2023/10/03 21:21:52;;;;;;;5.35;4.68;;;;;;;;;;10063726;28;20033;-71
2023/10/03 21:26:44;;;;;;;5.13;4.63;;;;;;;;;;10067390;28;20087;-71
2023/10/03 21:31:36;;;;;;;5.78;4.88;;;;;;;;;;10067066;28;20410;-71
2023/10/03 21:36:28;;;;;;;6.25;5.10;;;;;;;;;;10067617;28;20041;-71
2023/10/03 21:41:20;;;;;;;6.47;5.28;;;;;;;;;;10066834;28;20634;-70
2023/10/03 21:46:12;;;;;;;8.32;5.30;;;;;;;;;;10053535;28;20517;-70
2023/10/03 21:51:07;;;;;;;7.75;6.05;;;;;;;;;;10059479;28;20049;-71
2023/10/03 21:55:59;;;;;;;8.07;5.50;;;;;;;;;;10070076;28;20042;-69
2023/10/03 22:00:58;;;;;;;6.32;5.70;;;;;;;;;;10055168;28;20149;-70
2023/10/03 22:05:50;;;;;;;8.00;6.55;;;;;;;;;;10058665;28;20053;-70
2023/10/03 22:10:45;;;;;;;8.13;7.00;;;;;;;;;;10060765;28;20087;-69
2023/10/03 22:15:38;;;;;;;11.15;8.13;;;;;;;;;;10063455;28;20033;-69
2023/10/03 22:20:29;;;;;;;9.93;7.50;;;;;;;;;;10071264;28;20076;-70
2023/10/03 22:25:21;;;;;;;11.63;8.13;;;;;;;;;;10065900;28;20148;-70
2023/10/03 22:30:16;;;;;;;25.33;9.18;;;;;;;;;;10065589;28;20045;-69
2023/10/03 22:35:09;;;;;;;9.73;8.25;;;;;;;;;;10064898;28;20105;-70
2023/10/03 22:40:01;;;;;;;9.48;7.45;;;;;;;;;;10063228;28;20050;-68
2023/10/03 22:44:53;;;;;;;9.40;7.38;;;;;;;;;;10065316;28;20046;-71
2023/10/03 22:49:45;;;;;;;10.05;7.78;;;;;;;;;;10064497;28;20055;-71
2023/10/03 22:54:36;;;;;;;15.70;7.70;;;;;;;;;;10064267;28;20077;-69
2023/10/03 22:59:31;;;;;;;10.10;7.07;;;;;;;;;;10063347;28;20054;-70
2023/10/03 23:04:23;;;;;;;9.98;7.63;;;;;;;;;;10065415;28;20085;-70
2023/10/03 23:09:16;;;;;;;9.65;7.10;;;;;;;;;;10061861;28;20379;-71
2023/10/03 23:14:09;;;;;;;8.90;7.13;;;;;;;;;;10064884;28;20041;-71
2023/10/03 23:19:01;;;;;;;7.97;6.78;;;;;;;;;;10061772;28;20041;-71
2023/10/03 23:23:53;;;;;;;7.65;6.80;;;;;;;;;;10063401;28;20038;-70
2023/10/03 23:28:45;;;;;;;9.40;7.25;;;;;;;;;;10063111;28;20095;-68
2023/10/03 23:33:37;;;;;;;8.40;7.45;;;;;;;;;;10063232;28;20057;-70
2023/10/03 23:38:35;;;;;;;9.23;7.20;;;;;;;;;;10063253;28;20037;-70
2023/10/03 23:43:27;;;;;;;7.57;6.47;;;;;;;;;;10063091;28;20056;-71
2023/10/03 23:48:19;;;;;;;9.02;6.22;;;;;;;;;;10062548;28;20050;-70
2023/10/03 23:53:11;;;;;;;6.43;5.78;;;;;;;;;;10053903;28;20049;-69
2023/10/03 23:58:05;;;;;;;8.15;6.65;;;;;;;;;;10062341;28;20111;-71
